Airfield :







YOU CAN JOIN US ON...

 
LOGIN :

Register | Disclaimer

   EN    FR    IT 

 









Legend :    VFR   Marginal VFR   IFR   Intensive IFR   Very Intensive IFR
Visi :
Ceiling :
>= 8 km
>= 3000ft
5 to 8 km
1000 to 3000 ft
1500m to 5 km
500 to 1000 ft
800 to 1500m
200 to 500 ft
< 800m
< 200 ft
Symbols :   Thunderstorms  Fog  Heavy snow  Heavy precipitations  Wind > 20 kt






- Airport Elevation : 266 ft
- IATA code : MHT


KMHT - Manchester

CURRENT METAR :
  • 291153Z 00000KT 10SM BKN070 BKN250 19/13 A3021 RMK AO2 SLP242 T01890128 10194 20150 51006

EXPIRED METARs :
  • 291053Z 36003KT 10SM BKN070 BKN250 17/13 A3021 RMK AO2 SLP241 T01670128
  • 290953Z 00000KT 10SM BKN070 BKN250 16/13 A3021 RMK AO2 SLP240 T01560128

TAF KMHT
Valid from the 29 at 12:00 until the 30 at 12:00 UTC


291122Z 2912/3012 VRB03KT P6SM BKN070
FM291500 21008KT P6SM FEW250
FM292200 22005KT P6SM BKN100
KZBW FIR / North America



MET'MAP, your aeronautical weather chart ! - Copyright ORBIFLY December 2007 - Disclaimer

ORBIFLY MET'MAP TEAM :

Programming & Development : Alexandra Zaïnal
Original concept : Baudouin d'Aumeries
Technical & hardware support : Manuel Goepfert
Assistance : Marc-Olivier Méhu




SOURCES & CREDITS :

   NOAA